sensor_id;sensor_type;location;lat;lon;timestamp;P1;P2;P0
45700;PMS5003;36277;32.852;-116.998;2023-02-07T00:01:14;6.40;6.40;3.00
45700;PMS5003;36277;32.852;-116.998;2023-02-07T00:03:42;4.00;4.00;2.00
45700;PMS5003;36277;32.852;-116.998;2023-02-07T00:06:11;3.20;3.20;2.00
45700;PMS5003;36277;32.852;-116.998;2023-02-07T00:08:39;3.20;3.20;2.00
45700;PMS5003;36277;32.852;-116.998;2023-02-07T00:11:06;4.80;4.40;2.00
45700;PMS5003;36277;32.852;-116.998;2023-02-07T00:13:34;3.60;3.60;2.20
45700;PMS5003;36277;32.852;-116.998;2023-02-07T00:16:01;3.00;3.00;2.00
45700;PMS5003;36277;32.852;-116.998;2023-02-07T00:18:29;5.00;5.00;3.60
45700;PMS5003;36277;32.852;-116.998;2023-02-07T00:21:04;3.20;3.20;2.20
45700;PMS5003;36277;32.852;-116.998;2023-02-07T00:23:32;5.00;5.00;3.00
45700;PMS5003;36277;32.852;-116.998;2023-02-07T00:25:59;4.00;4.00;2.00
45700;PMS5003;36277;32.852;-116.998;2023-02-07T00:28:26;3.00;3.00;2.00
45700;PMS5003;36277;32.852;-116.998;2023-02-07T00:33:53;4.60;4.40;3.00
45700;PMS5003;36277;32.852;-116.998;2023-02-07T00:36:22;2.60;2.60;2.00
45700;PMS5003;36277;32.852;-116.998;2023-02-07T00:38:49;2.00;2.00;1.00
45700;PMS5003;36277;32.852;-116.998;2023-02-07T00:41:16;2.20;2.20;2.00
45700;PMS5003;36277;32.852;-116.998;2023-02-07T00:43:43;3.00;3.00;2.00
45700;PMS5003;36277;32.852;-116.998;2023-02-07T00:46:10;3.80;3.80;2.80
45700;PMS5003;36277;32.852;-116.998;2023-02-07T00:48:37;4.20;4.20;3.00
45700;PMS5003;36277;32.852;-116.998;2023-02-07T00:51:06;2.60;2.60;1.80
45700;PMS5003;36277;32.852;-116.998;2023-02-07T00:53:33;4.00;4.00;3.00
45700;PMS5003;36277;32.852;-116.998;2023-02-07T00:55:59;3.40;3.40;2.20
45700;PMS5003;36277;32.852;-116.998;2023-02-07T00:58:25;3.00;3.00;2.00
45700;PMS5003;36277;32.852;-116.998;2023-02-07T01:00:52;3.00;3.00;2.00
45700;PMS5003;36277;32.852;-116.998;2023-02-07T01:03:18;1.00;1.00;0.80
45700;PMS5003;36277;32.852;-116.998;2023-02-07T01:05:45;2.80;2.80;2.00
45700;PMS5003;36277;32.852;-116.998;2023-02-07T01:08:11;2.00;2.00;2.00
45700;PMS5003;36277;32.852;-116.998;2023-02-07T01:10:38;3.00;3.00;2.00
45700;PMS5003;36277;32.852;-116.998;2023-02-07T01:13:06;2.40;2.40;2.00
45700;PMS5003;36277;32.852;-116.998;2023-02-07T01:15:37;1.00;1.00;0.00
45700;PMS5003;36277;32.852;-116.998;2023-02-07T01:18:05;2.20;2.20;1.80
45700;PMS5003;36277;32.852;-116.998;2023-02-07T01:20:32;1.80;1.80;1.00
45700;PMS5003;36277;32.852;-116.998;2023-02-07T01:22:59;1.20;1.20;1.00
45700;PMS5003;36277;32.852;-116.998;2023-02-07T01:25:25;1.00;1.00;1.00
45700;PMS5003;36277;32.852;-116.998;2023-02-07T01:27:51;1.00;1.00;1.00
45700;PMS5003;36277;32.852;-116.998;2023-02-07T01:30:17;3.00;3.00;2.00
45700;PMS5003;36277;32.852;-116.998;2023-02-07T01:32:44;1.40;1.20;1.00
45700;PMS5003;36277;32.852;-116.998;2023-02-07T01:35:10;1.00;1.00;1.00
45700;PMS5003;36277;32.852;-116.998;2023-02-07T01:37:36;2.80;2.80;2.00
45700;PMS5003;36277;32.852;-116.998;2023-02-07T01:40:03;2.40;2.40;1.80
45700;PMS5003;36277;32.852;-116.998;2023-02-07T01:42:29;3.00;2.00;1.00
45700;PMS5003;36277;32.852;-116.998;2023-02-07T01:45:00;2.00;2.00;1.00
45700;PMS5003;36277;32.852;-116.998;2023-02-07T01:47:47;2.00;2.00;2.00
45700;PMS5003;36277;32.852;-116.998;2023-02-07T01:50:13;2.60;2.60;2.00
45700;PMS5003;36277;32.852;-116.998;2023-02-07T01:52:40;2.00;2.00;1.00
45700;PMS5003;36277;32.852;-116.998;2023-02-07T01:55:08;1.60;1.60;1.40
45700;PMS5003;36277;32.852;-116.998;2023-02-07T01:57:39;2.00;2.00;1.20
45700;PMS5003;36277;32.852;-116.998;2023-02-07T02:00:06;2.00;2.00;1.60
45700;PMS5003;36277;32.852;-116.998;2023-02-07T02:02:34;2.60;2.60;1.60
45700;PMS5003;36277;32.852;-116.998;2023-02-07T02:05:03;0.80;0.80;0.00
45700;PMS5003;36277;32.852;-116.998;2023-02-07T02:07:29;1.80;1.80;1.60
45700;PMS5003;36277;32.852;-116.998;2023-02-07T02:09:57;1.60;1.60;1.00
45700;PMS5003;36277;32.852;-116.998;2023-02-07T02:12:41;3.00;3.00;2.40
45700;PMS5003;36277;32.852;-116.998;2023-02-07T02:18:29;2.00;2.00;1.00
45700;PMS5003;36277;32.852;-116.998;2023-02-07T02:26:44;1.00;1.00;0.00
45700;PMS5003;36277;32.852;-116.998;2023-02-07T02:38:14;2.00;2.00;1.00
45700;PMS5003;36277;32.852;-116.998;2023-02-07T02:40:51;1.00;1.00;1.00
45700;PMS5003;36277;32.852;-116.998;2023-02-07T02:43:44;1.00;1.00;1.00
45700;PMS5003;36277;32.852;-116.998;2023-02-07T02:46:25;1.00;1.00;1.00
45700;PMS5003;36277;32.852;-116.998;2023-02-07T02:48:59;2.40;2.40;2.00
45700;PMS5003;36277;32.852;-116.998;2023-02-07T02:51:29;1.40;1.40;1.00
45700;PMS5003;36277;32.852;-116.998;2023-02-07T02:53:57;2.00;2.00;2.00
45700;PMS5003;36277;32.852;-116.998;2023-02-07T03:05:10;1.00;1.00;1.00
45700;PMS5003;36277;32.852;-116.998;2023-02-07T03:10:43;1.80;1.80;1.00
45700;PMS5003;36277;32.852;-116.998;2023-02-07T03:13:40;1.40;1.40;1.00
45700;PMS5003;36277;32.852;-116.998;2023-02-07T03:16:20;2.40;2.40;2.00
45700;PMS5003;36277;32.852;-116.998;2023-02-07T03:22:01;2.00;2.00;1.60
45700;PMS5003;36277;32.852;-116.998;2023-02-07T03:24:35;1.60;1.60;1.00
45700;PMS5003;36277;32.852;-116.998;2023-02-07T03:27:08;1.00;1.00;1.00
45700;PMS5003;36277;32.852;-116.998;2023-02-07T03:29:38;0.00;0.00;0.00
45700;PMS5003;36277;32.852;-116.998;2023-02-07T03:32:07;2.00;2.00;1.00
45700;PMS5003;36277;32.852;-116.998;2023-02-07T03:34:40;1.40;1.40;1.00
45700;PMS5003;36277;32.852;-116.998;2023-02-07T03:40:06;1.60;1.60;1.00
45700;PMS5003;36277;32.852;-116.998;2023-02-07T03:42:41;2.00;2.00;2.00
45700;PMS5003;36277;32.852;-116.998;2023-02-07T03:45:11;2.00;2.00;2.00
45700;PMS5003;36277;32.852;-116.998;2023-02-07T03:47:41;1.00;1.00;1.00
45700;PMS5003;36277;32.852;-116.998;2023-02-07T03:50:07;1.60;1.60;1.40
45700;PMS5003;36277;32.852;-116.998;2023-02-07T03:52:34;2.00;2.00;2.00
45700;PMS5003;36277;32.852;-116.998;2023-02-07T03:55:00;2.00;2.00;2.00
45700;PMS5003;36277;32.852;-116.998;2023-02-07T03:57:26;2.40;2.40;2.00
45700;PMS5003;36277;32.852;-116.998;2023-02-07T03:59:52;1.80;1.80;1.00
45700;PMS5003;36277;32.852;-116.998;2023-02-07T04:02:19;0.20;0.20;0.00
45700;PMS5003;36277;32.852;-116.998;2023-02-07T04:04:45;1.00;1.00;0.60
45700;PMS5003;36277;32.852;-116.998;2023-02-07T04:07:11;1.80;1.80;1.00
45700;PMS5003;36277;32.852;-116.998;2023-02-07T04:09:38;1.40;1.40;1.00
45700;PMS5003;36277;32.852;-116.998;2023-02-07T04:12:04;2.00;2.00;1.00
45700;PMS5003;36277;32.852;-116.998;2023-02-07T04:14:30;2.40;2.40;2.00
45700;PMS5003;36277;32.852;-116.998;2023-02-07T04:16:56;2.80;2.80;2.40
45700;PMS5003;36277;32.852;-116.998;2023-02-07T04:19:23;2.20;2.20;1.80
45700;PMS5003;36277;32.852;-116.998;2023-02-07T04:21:49;2.00;2.00;2.00
45700;PMS5003;36277;32.852;-116.998;2023-02-07T04:24:15;1.00;1.00;1.00
45700;PMS5003;36277;32.852;-116.998;2023-02-07T04:26:41;3.00;3.00;2.60
45700;PMS5003;36277;32.852;-116.998;2023-02-07T04:29:08;2.00;2.00;1.20
45700;PMS5003;36277;32.852;-116.998;2023-02-07T04:31:34;2.00;2.00;1.00
45700;PMS5003;36277;32.852;-116.998;2023-02-07T04:34:02;2.00;2.00;2.00
45700;PMS5003;36277;32.852;-116.998;2023-02-07T04:36:30;1.00;1.00;1.00
45700;PMS5003;36277;32.852;-116.998;2023-02-07T04:38:56;3.00;3.00;2.00
45700;PMS5003;36277;32.852;-116.998;2023-02-07T04:41:22;1.60;1.60;1.00
45700;PMS5003;36277;32.852;-116.998;2023-02-07T04:43:49;1.00;1.00;1.00
45700;PMS5003;36277;32.852;-116.998;2023-02-07T04:46:15;1.80;1.80;1.60
45700;PMS5003;36277;32.852;-116.998;2023-02-07T04:48:41;1.80;1.80;1.20
45700;PMS5003;36277;32.852;-116.998;2023-02-07T04:51:08;1.20;1.20;1.00
45700;PMS5003;36277;32.852;-116.998;2023-02-07T04:53:34;2.00;2.00;1.80
45700;PMS5003;36277;32.852;-116.998;2023-02-07T04:56:00;1.80;1.80;1.60
45700;PMS5003;36277;32.852;-116.998;2023-02-07T04:58:26;1.00;1.00;1.00
45700;PMS5003;36277;32.852;-116.998;2023-02-07T05:00:53;2.00;2.00;1.20
45700;PMS5003;36277;32.852;-116.998;2023-02-07T05:03:19;1.00;1.00;0.80
45700;PMS5003;36277;32.852;-116.998;2023-02-07T05:05:45;0.20;0.20;0.00
45700;PMS5003;36277;32.852;-116.998;2023-02-07T05:08:12;0.00;0.00;0.00
45700;PMS5003;36277;32.852;-116.998;2023-02-07T05:10:39;1.60;1.60;1.60
45700;PMS5003;36277;32.852;-116.998;2023-02-07T05:13:06;2.00;2.00;1.00
45700;PMS5003;36277;32.852;-116.998;2023-02-07T05:15:32;0.80;0.80;0.80
45700;PMS5003;36277;32.852;-116.998;2023-02-07T05:17:58;2.80;2.80;0.00
45700;PMS5003;36277;32.852;-116.998;2023-02-07T05:20:25;0.80;0.80;0.60
45700;PMS5003;36277;32.852;-116.998;2023-02-07T05:22:51;1.00;1.00;1.00
45700;PMS5003;36277;32.852;-116.998;2023-02-07T05:25:17;0.60;0.60;0.00
45700;PMS5003;36277;32.852;-116.998;2023-02-07T05:27:44;1.00;1.00;1.00
45700;PMS5003;36277;32.852;-116.998;2023-02-07T05:30:10;2.00;2.00;1.20
45700;PMS5003;36277;32.852;-116.998;2023-02-07T05:32:37;1.80;1.80;1.00
45700;PMS5003;36277;32.852;-116.998;2023-02-07T05:35:21;2.00;2.00;1.60
45700;PMS5003;36277;32.852;-116.998;2023-02-07T05:37:48;1.20;1.20;1.00
45700;PMS5003;36277;32.852;-116.998;2023-02-07T05:40:14;1.00;1.00;1.00
45700;PMS5003;36277;32.852;-116.998;2023-02-07T05:42:40;1.00;1.00;1.00
45700;PMS5003;36277;32.852;-116.998;2023-02-07T05:45:07;0.40;0.40;0.40
45700;PMS5003;36277;32.852;-116.998;2023-02-07T05:47:34;1.60;1.60;1.00
45700;PMS5003;36277;32.852;-116.998;2023-02-07T05:50:00;1.00;1.00;1.00
45700;PMS5003;36277;32.852;-116.998;2023-02-07T05:52:26;1.40;1.40;1.00
45700;PMS5003;36277;32.852;-116.998;2023-02-07T05:54:53;1.00;1.00;1.00
45700;PMS5003;36277;32.852;-116.998;2023-02-07T05:57:19;0.00;0.00;0.00
45700;PMS5003;36277;32.852;-116.998;2023-02-07T05:59:45;1.00;1.00;1.00
45700;PMS5003;36277;32.852;-116.998;2023-02-07T06:02:11;1.00;1.00;1.00
45700;PMS5003;36277;32.852;-116.998;2023-02-07T06:04:38;1.00;1.00;1.00
45700;PMS5003;36277;32.852;-116.998;2023-02-07T06:07:04;1.00;1.00;1.00
45700;PMS5003;36277;32.852;-116.998;2023-02-07T06:09:30;1.20;1.20;1.00
45700;PMS5003;36277;32.852;-116.998;2023-02-07T06:11:56;1.00;1.00;0.80
45700;PMS5003;36277;32.852;-116.998;2023-02-07T06:14:22;1.00;1.00;1.00
45700;PMS5003;36277;32.852;-116.998;2023-02-07T06:16:49;0.60;0.60;0.60
45700;PMS5003;36277;32.852;-116.998;2023-02-07T06:19:15;1.00;1.00;1.00
45700;PMS5003;36277;32.852;-116.998;2023-02-07T06:21:41;1.80;1.80;1.00
45700;PMS5003;36277;32.852;-116.998;2023-02-07T06:24:07;1.40;1.40;1.40
45700;PMS5003;36277;32.852;-116.998;2023-02-07T06:26:34;1.00;1.00;1.00
45700;PMS5003;36277;32.852;-116.998;2023-02-07T06:29:00;1.00;1.00;1.00
45700;PMS5003;36277;32.852;-116.998;2023-02-07T06:31:27;1.00;1.00;1.00
45700;PMS5003;36277;32.852;-116.998;2023-02-07T06:33:53;1.00;1.00;1.00
45700;PMS5003;36277;32.852;-116.998;2023-02-07T06:36:19;1.00;1.00;1.00
45700;PMS5003;36277;32.852;-116.998;2023-02-07T06:38:45;1.00;1.00;1.00
45700;PMS5003;36277;32.852;-116.998;2023-02-07T06:41:13;1.40;1.40;1.40
45700;PMS5003;36277;32.852;-116.998;2023-02-07T06:43:39;0.80;0.80;0.80
45700;PMS5003;36277;32.852;-116.998;2023-02-07T06:46:06;1.60;1.60;1.40
45700;PMS5003;36277;32.852;-116.998;2023-02-07T06:48:32;1.00;1.00;1.00
45700;PMS5003;36277;32.852;-116.998;2023-02-07T06:50:58;1.00;1.00;1.00
45700;PMS5003;36277;32.852;-116.998;2023-02-07T06:53:24;1.00;1.00;0.60
45700;PMS5003;36277;32.852;-116.998;2023-02-07T06:55:52;1.00;1.00;1.00
45700;PMS5003;36277;32.852;-116.998;2023-02-07T06:58:18;0.00;0.00;0.00
45700;PMS5003;36277;32.852;-116.998;2023-02-07T07:00:44;1.60;1.60;1.00
45700;PMS5003;36277;32.852;-116.998;2023-02-07T07:03:15;0.60;0.60;0.60
45700;PMS5003;36277;32.852;-116.998;2023-02-07T07:05:42;1.00;1.00;0.80
45700;PMS5003;36277;32.852;-116.998;2023-02-07T07:08:09;1.00;1.00;0.80
45700;PMS5003;36277;32.852;-116.998;2023-02-07T07:10:38;1.00;1.00;1.00
45700;PMS5003;36277;32.852;-116.998;2023-02-07T07:13:05;0.80;0.80;0.80
45700;PMS5003;36277;32.852;-116.998;2023-02-07T07:15:32;1.00;1.00;1.00
45700;PMS5003;36277;32.852;-116.998;2023-02-07T07:17:58;1.00;1.00;1.00
45700;PMS5003;36277;32.852;-116.998;2023-02-07T07:20:24;0.20;0.20;0.20
45700;PMS5003;36277;32.852;-116.998;2023-02-07T07:22:50;1.00;1.00;0.40
45700;PMS5003;36277;32.852;-116.998;2023-02-07T07:25:16;1.20;1.20;1.00
45700;PMS5003;36277;32.852;-116.998;2023-02-07T07:27:44;1.00;1.00;1.00
45700;PMS5003;36277;32.852;-116.998;2023-02-07T07:30:11;1.40;1.40;1.00
45700;PMS5003;36277;32.852;-116.998;2023-02-07T07:32:37;1.00;1.00;1.00
45700;PMS5003;36277;32.852;-116.998;2023-02-07T07:35:04;1.00;1.00;1.00
45700;PMS5003;36277;32.852;-116.998;2023-02-07T07:37:31;0.00;0.00;0.00
45700;PMS5003;36277;32.852;-116.998;2023-02-07T07:39:58;1.00;1.00;1.00
45700;PMS5003;36277;32.852;-116.998;2023-02-07T07:42:24;1.00;1.00;1.00
45700;PMS5003;36277;32.852;-116.998;2023-02-07T07:44:50;1.00;1.00;0.80
45700;PMS5003;36277;32.852;-116.998;2023-02-07T07:47:17;1.00;1.00;1.00
45700;PMS5003;36277;32.852;-116.998;2023-02-07T07:49:43;1.00;1.00;0.80
45700;PMS5003;36277;32.852;-116.998;2023-02-07T07:52:10;1.80;1.80;1.80
45700;PMS5003;36277;32.852;-116.998;2023-02-07T07:54:36;2.00;2.00;1.60
45700;PMS5003;36277;32.852;-116.998;2023-02-07T07:57:02;0.60;0.60;0.60
45700;PMS5003;36277;32.852;-116.998;2023-02-07T07:59:29;1.00;1.00;1.00
45700;PMS5003;36277;32.852;-116.998;2023-02-07T08:01:55;1.00;1.00;1.00
45700;PMS5003;36277;32.852;-116.998;2023-02-07T08:04:21;1.00;1.00;1.00
45700;PMS5003;36277;32.852;-116.998;2023-02-07T08:06:47;1.00;1.00;1.00
45700;PMS5003;36277;32.852;-116.998;2023-02-07T08:09:13;0.00;0.00;0.00
45700;PMS5003;36277;32.852;-116.998;2023-02-07T08:11:40;0.40;0.40;0.00
45700;PMS5003;36277;32.852;-116.998;2023-02-07T08:14:06;2.00;2.00;2.00
45700;PMS5003;36277;32.852;-116.998;2023-02-07T08:16:32;1.00;1.00;1.00
45700;PMS5003;36277;32.852;-116.998;2023-02-07T08:18:58;1.00;1.00;1.00
45700;PMS5003;36277;32.852;-116.998;2023-02-07T08:21:25;0.00;0.00;0.00
45700;PMS5003;36277;32.852;-116.998;2023-02-07T08:23:51;1.00;1.00;1.00
45700;PMS5003;36277;32.852;-116.998;2023-02-07T08:26:18;0.40;0.40;0.00
45700;PMS5003;36277;32.852;-116.998;2023-02-07T08:28:45;1.00;1.00;0.80
45700;PMS5003;36277;32.852;-116.998;2023-02-07T08:31:12;1.00;1.00;1.00
45700;PMS5003;36277;32.852;-116.998;2023-02-07T08:33:39;1.60;1.60;1.60
45700;PMS5003;36277;32.852;-116.998;2023-02-07T08:36:05;1.00;1.00;1.00
45700;PMS5003;36277;32.852;-116.998;2023-02-07T08:38:34;1.00;1.00;1.00
45700;PMS5003;36277;32.852;-116.998;2023-02-07T08:41:00;1.00;1.00;1.00
45700;PMS5003;36277;32.852;-116.998;2023-02-07T08:43:28;1.00;1.00;1.00
45700;PMS5003;36277;32.852;-116.998;2023-02-07T08:45:55;0.00;0.00;0.00
45700;PMS5003;36277;32.852;-116.998;2023-02-07T08:48:21;0.00;0.00;0.00
45700;PMS5003;36277;32.852;-116.998;2023-02-07T08:50:48;0.60;0.60;0.00
45700;PMS5003;36277;32.852;-116.998;2023-02-07T08:53:14;0.00;0.00;0.00
45700;PMS5003;36277;32.852;-116.998;2023-02-07T08:55:40;1.00;1.00;0.60
45700;PMS5003;36277;32.852;-116.998;2023-02-07T08:58:08;0.60;0.60;0.20
45700;PMS5003;36277;32.852;-116.998;2023-02-07T09:00:35;1.00;1.00;0.80
45700;PMS5003;36277;32.852;-116.998;2023-02-07T09:03:01;1.00;1.00;0.40
45700;PMS5003;36277;32.852;-116.998;2023-02-07T09:05:29;0.00;0.00;0.00
45700;PMS5003;36277;32.852;-116.998;2023-02-07T09:08:01;0.00;0.00;0.00
45700;PMS5003;36277;32.852;-116.998;2023-02-07T09:10:28;0.00;0.00;0.00
45700;PMS5003;36277;32.852;-116.998;2023-02-07T09:12:54;0.00;0.00;0.00
45700;PMS5003;36277;32.852;-116.998;2023-02-07T09:15:20;0.00;0.00;0.00
45700;PMS5003;36277;32.852;-116.998;2023-02-07T09:17:47;0.00;0.00;0.00
45700;PMS5003;36277;32.852;-116.998;2023-02-07T09:20:13;0.00;0.00;0.00
45700;PMS5003;36277;32.852;-116.998;2023-02-07T09:22:39;0.40;0.40;0.00
45700;PMS5003;36277;32.852;-116.998;2023-02-07T09:25:24;0.00;0.00;0.00
45700;PMS5003;36277;32.852;-116.998;2023-02-07T09:27:50;0.00;0.00;0.00
45700;PMS5003;36277;32.852;-116.998;2023-02-07T09:30:16;0.20;0.20;0.20
45700;PMS5003;36277;32.852;-116.998;2023-02-07T09:32:43;0.00;0.00;0.00
45700;PMS5003;36277;32.852;-116.998;2023-02-07T09:35:09;0.00;0.00;0.00
45700;PMS5003;36277;32.852;-116.998;2023-02-07T09:37:35;1.00;1.00;1.00
45700;PMS5003;36277;32.852;-116.998;2023-02-07T09:40:02;0.00;0.00;0.00
45700;PMS5003;36277;32.852;-116.998;2023-02-07T09:42:41;1.00;1.00;1.00
45700;PMS5003;36277;32.852;-116.998;2023-02-07T09:45:20;0.00;0.00;0.00
45700;PMS5003;36277;32.852;-116.998;2023-02-07T09:47:51;0.00;0.00;0.00
45700;PMS5003;36277;32.852;-116.998;2023-02-07T09:50:26;0.40;0.40;0.00
45700;PMS5003;36277;32.852;-116.998;2023-02-07T09:52:56;0.60;0.60;0.60
45700;PMS5003;36277;32.852;-116.998;2023-02-07T09:55:43;1.00;1.00;0.00
45700;PMS5003;36277;32.852;-116.998;2023-02-07T10:01:01;0.00;0.00;0.00
45700;PMS5003;36277;32.852;-116.998;2023-02-07T10:03:50;0.00;0.00;0.00
45700;PMS5003;36277;32.852;-116.998;2023-02-07T10:06:31;0.00;0.00;0.00
45700;PMS5003;36277;32.852;-116.998;2023-02-07T10:15:37;0.00;0.00;0.00
45700;PMS5003;36277;32.852;-116.998;2023-02-07T10:18:25;0.00;0.00;0.00
45700;PMS5003;36277;32.852;-116.998;2023-02-07T10:24:00;0.00;0.00;0.00
45700;PMS5003;36277;32.852;-116.998;2023-02-07T10:26:58;0.00;0.00;0.00
45700;PMS5003;36277;32.852;-116.998;2023-02-07T10:29:53;1.00;1.00;0.00
45700;PMS5003;36277;32.852;-116.998;2023-02-07T10:32:32;1.00;1.00;1.00
45700;PMS5003;36277;32.852;-116.998;2023-02-07T10:35:03;0.00;0.00;0.00
45700;PMS5003;36277;32.852;-116.998;2023-02-07T10:37:45;0.60;0.60;0.40
45700;PMS5003;36277;32.852;-116.998;2023-02-07T10:40:18;0.00;0.00;0.00
45700;PMS5003;36277;32.852;-116.998;2023-02-07T10:42:55;0.00;0.00;0.00
45700;PMS5003;36277;32.852;-116.998;2023-02-07T10:45:28;0.00;0.00;0.00
45700;PMS5003;36277;32.852;-116.998;2023-02-07T10:47:54;0.00;0.00;0.00
45700;PMS5003;36277;32.852;-116.998;2023-02-07T10:50:22;0.00;0.00;0.00
45700;PMS5003;36277;32.852;-116.998;2023-02-07T10:52:56;1.00;1.00;1.00
45700;PMS5003;36277;32.852;-116.998;2023-02-07T10:55:38;0.60;0.60;0.60
45700;PMS5003;36277;32.852;-116.998;2023-02-07T10:58:23;0.00;0.00;0.00
45700;PMS5003;36277;32.852;-116.998;2023-02-07T11:00:50;0.00;0.00;0.00
45700;PMS5003;36277;32.852;-116.998;2023-02-07T11:03:21;0.00;0.00;0.00
45700;PMS5003;36277;32.852;-116.998;2023-02-07T11:05:59;0.00;0.00;0.00
45700;PMS5003;36277;32.852;-116.998;2023-02-07T11:08:29;0.00;0.00;0.00
45700;PMS5003;36277;32.852;-116.998;2023-02-07T11:11:21;0.00;0.00;0.00
45700;PMS5003;36277;32.852;-116.998;2023-02-07T11:13:52;0.00;0.00;0.00
45700;PMS5003;36277;32.852;-116.998;2023-02-07T11:16:22;0.00;0.00;0.00
45700;PMS5003;36277;32.852;-116.998;2023-02-07T11:18:54;0.00;0.00;0.00
45700;PMS5003;36277;32.852;-116.998;2023-02-07T11:21:37;0.00;0.00;0.00
45700;PMS5003;36277;32.852;-116.998;2023-02-07T11:24:07;0.00;0.00;0.00
45700;PMS5003;36277;32.852;-116.998;2023-02-07T11:26:47;0.00;0.00;0.00
45700;PMS5003;36277;32.852;-116.998;2023-02-07T11:29:29;0.00;0.00;0.00
45700;PMS5003;36277;32.852;-116.998;2023-02-07T11:31:58;0.00;0.00;0.00
45700;PMS5003;36277;32.852;-116.998;2023-02-07T11:34:30;0.00;0.00;0.00
45700;PMS5003;36277;32.852;-116.998;2023-02-07T11:39:42;0.00;0.00;0.00
45700;PMS5003;36277;32.852;-116.998;2023-02-07T11:42:27;0.00;0.00;0.00
45700;PMS5003;36277;32.852;-116.998;2023-02-07T11:44:56;0.00;0.00;0.00
45700;PMS5003;36277;32.852;-116.998;2023-02-07T11:47:29;0.00;0.00;0.00
45700;PMS5003;36277;32.852;-116.998;2023-02-07T11:49:57;0.00;0.00;0.00
45700;PMS5003;36277;32.852;-116.998;2023-02-07T11:52:25;0.00;0.00;0.00
45700;PMS5003;36277;32.852;-116.998;2023-02-07T11:54:55;0.00;0.00;0.00
45700;PMS5003;36277;32.852;-116.998;2023-02-07T11:57:24;0.00;0.00;0.00
45700;PMS5003;36277;32.852;-116.998;2023-02-07T12:00:18;0.00;0.00;0.00
45700;PMS5003;36277;32.852;-116.998;2023-02-07T12:05:36;0.00;0.00;0.00
45700;PMS5003;36277;32.852;-116.998;2023-02-07T12:08:16;0.00;0.00;0.00
45700;PMS5003;36277;32.852;-116.998;2023-02-07T12:10:51;0.00;0.00;0.00
45700;PMS5003;36277;32.852;-116.998;2023-02-07T12:13:34;0.00;0.00;0.00
45700;PMS5003;36277;32.852;-116.998;2023-02-07T12:25:00;0.00;0.00;0.00
45700;PMS5003;36277;32.852;-116.998;2023-02-07T12:27:35;0.00;0.00;0.00
45700;PMS5003;36277;32.852;-116.998;2023-02-07T12:33:12;0.00;0.00;0.00
45700;PMS5003;36277;32.852;-116.998;2023-02-07T13:04:14;0.00;0.00;0.00
45700;PMS5003;36277;32.852;-116.998;2023-02-07T13:09:53;0.00;0.00;0.00
45700;PMS5003;36277;32.852;-116.998;2023-02-07T13:12:38;0.00;0.00;0.00
45700;PMS5003;36277;32.852;-116.998;2023-02-07T13:15:17;0.00;0.00;0.00
45700;PMS5003;36277;32.852;-116.998;2023-02-07T13:17:53;0.00;0.00;0.00
45700;PMS5003;36277;32.852;-116.998;2023-02-07T13:23:03;0.00;0.00;0.00
45700;PMS5003;36277;32.852;-116.998;2023-02-07T13:25:39;0.00;0.00;0.00
45700;PMS5003;36277;32.852;-116.998;2023-02-07T13:28:17;0.00;0.00;0.00
45700;PMS5003;36277;32.852;-116.998;2023-02-07T13:30:50;0.00;0.00;0.00
45700;PMS5003;36277;32.852;-116.998;2023-02-07T13:35:54;0.00;0.00;0.00
45700;PMS5003;36277;32.852;-116.998;2023-02-07T13:44:24;0.00;0.00;0.00
45700;PMS5003;36277;32.852;-116.998;2023-02-07T13:52:19;0.00;0.00;0.00
45700;PMS5003;36277;32.852;-116.998;2023-02-07T13:55:48;0.00;0.00;0.00
45700;PMS5003;36277;32.852;-116.998;2023-02-07T13:58:49;0.00;0.00;0.00
45700;PMS5003;36277;32.852;-116.998;2023-02-07T14:03:58;0.00;0.00;0.00
45700;PMS5003;36277;32.852;-116.998;2023-02-07T14:06:29;0.00;0.00;0.00
45700;PMS5003;36277;32.852;-116.998;2023-02-07T14:09:17;0.00;0.00;0.00
45700;PMS5003;36277;32.852;-116.998;2023-02-07T14:11:56;0.00;0.00;0.00
45700;PMS5003;36277;32.852;-116.998;2023-02-07T14:14:27;0.00;0.00;0.00
45700;PMS5003;36277;32.852;-116.998;2023-02-07T14:16:59;0.00;0.00;0.00
45700;PMS5003;36277;32.852;-116.998;2023-02-07T14:22:17;0.00;0.00;0.00
45700;PMS5003;36277;32.852;-116.998;2023-02-07T14:37:53;0.00;0.00;0.00
45700;PMS5003;36277;32.852;-116.998;2023-02-07T14:40:26;0.00;0.00;0.00
45700;PMS5003;36277;32.852;-116.998;2023-02-07T14:43:03;0.00;0.00;0.00
45700;PMS5003;36277;32.852;-116.998;2023-02-07T14:45:35;0.00;0.00;0.00
45700;PMS5003;36277;32.852;-116.998;2023-02-07T14:48:06;0.00;0.00;0.00
45700;PMS5003;36277;32.852;-116.998;2023-02-07T14:51:11;0.00;0.00;0.00
45700;PMS5003;36277;32.852;-116.998;2023-02-07T14:53:45;0.00;0.00;0.00
45700;PMS5003;36277;32.852;-116.998;2023-02-07T14:59:03;0.00;0.00;0.00
45700;PMS5003;36277;32.852;-116.998;2023-02-07T15:01:34;0.00;0.00;0.00
45700;PMS5003;36277;32.852;-116.998;2023-02-07T15:04:04;0.00;0.00;0.00
45700;PMS5003;36277;32.852;-116.998;2023-02-07T15:06:38;0.00;0.00;0.00
45700;PMS5003;36277;32.852;-116.998;2023-02-07T15:09:18;0.00;0.00;0.00
45700;PMS5003;36277;32.852;-116.998;2023-02-07T15:11:50;0.00;0.00;0.00
45700;PMS5003;36277;32.852;-116.998;2023-02-07T15:14:30;0.00;0.00;0.00
45700;PMS5003;36277;32.852;-116.998;2023-02-07T15:16:58;0.00;0.00;0.00
45700;PMS5003;36277;32.852;-116.998;2023-02-07T15:19:35;0.00;0.00;0.00
45700;PMS5003;36277;32.852;-116.998;2023-02-07T15:22:04;0.00;0.00;0.00
45700;PMS5003;36277;32.852;-116.998;2023-02-07T15:24:38;0.00;0.00;0.00
45700;PMS5003;36277;32.852;-116.998;2023-02-07T15:27:20;0.00;0.00;0.00
45700;PMS5003;36277;32.852;-116.998;2023-02-07T15:30:01;0.00;0.00;0.00
45700;PMS5003;36277;32.852;-116.998;2023-02-07T15:32:42;0.00;0.00;0.00
45700;PMS5003;36277;32.852;-116.998;2023-02-07T15:35:22;0.00;0.00;0.00
45700;PMS5003;36277;32.852;-116.998;2023-02-07T15:37:53;0.00;0.00;0.00
45700;PMS5003;36277;32.852;-116.998;2023-02-07T15:40:37;0.00;0.00;0.00
45700;PMS5003;36277;32.852;-116.998;2023-02-07T15:43:04;0.00;0.00;0.00
45700;PMS5003;36277;32.852;-116.998;2023-02-07T15:45:58;0.00;0.00;0.00
45700;PMS5003;36277;32.852;-116.998;2023-02-07T15:48:28;0.00;0.00;0.00
45700;PMS5003;36277;32.852;-116.998;2023-02-07T15:50:55;0.00;0.00;0.00
45700;PMS5003;36277;32.852;-116.998;2023-02-07T15:53:25;0.00;0.00;0.00
45700;PMS5003;36277;32.852;-116.998;2023-02-07T15:55:53;0.00;0.00;0.00
45700;PMS5003;36277;32.852;-116.998;2023-02-07T16:01:15;0.00;0.00;0.00
45700;PMS5003;36277;32.852;-116.998;2023-02-07T16:03:54;0.00;0.00;0.00
45700;PMS5003;36277;32.852;-116.998;2023-02-07T16:06:23;0.00;0.00;0.00
45700;PMS5003;36277;32.852;-116.998;2023-02-07T16:08:52;0.00;0.00;0.00
45700;PMS5003;36277;32.852;-116.998;2023-02-07T16:16:36;0.00;0.00;0.00
45700;PMS5003;36277;32.852;-116.998;2023-02-07T16:21:42;0.00;0.00;0.00
45700;PMS5003;36277;32.852;-116.998;2023-02-07T16:26:42;0.00;0.00;0.00
45700;PMS5003;36277;32.852;-116.998;2023-02-07T16:29:16;0.00;0.00;0.00
45700;PMS5003;36277;32.852;-116.998;2023-02-07T16:31:44;2.50;2.50;2.00
45700;PMS5003;36277;32.852;-116.998;2023-02-07T16:34:12;13.75;13.75;7.50
45700;PMS5003;36277;32.852;-116.998;2023-02-07T16:36:39;29.75;28.75;15.50